createdAt,value
2019-01-19T00:01:48.442Z,136.67
2019-01-19T00:04:54.620Z,143.53
2019-01-19T00:07:56.973Z,137.23
2019-01-19T00:11:29.006Z,131.63
2019-01-19T00:14:17.428Z,131.20
2019-01-19T00:17:11.148Z,151.60
2019-01-19T00:20:35.039Z,155.77
2019-01-19T00:23:16.154Z,141.27
2019-01-19T00:26:47.084Z,126.43
2019-01-19T00:29:35.517Z,109.23
2019-01-19T00:32:20.403Z,126.60
2019-01-19T00:35:38.325Z,126.80
2019-01-19T00:38:16.740Z,126.90
2019-01-19T00:41:36.754Z,129.00
2019-01-19T00:44:37.812Z,130.37
2019-01-19T00:47:49.689Z,130.37
2019-01-19T00:51:16.066Z,136.27
2019-01-19T00:54:10.353Z,131.73
2019-01-19T00:56:51.946Z,130.27
2019-01-19T00:59:26.921Z,135.77
2019-01-19T01:02:33.622Z,133.53
2019-01-19T01:05:25.344Z,127.20
2019-01-19T01:08:36.338Z,114.57
2019-01-19T01:11:16.910Z,117.87
2019-01-19T01:14:27.570Z,118.47
2019-01-19T01:17:42.877Z,114.10
2019-01-19T01:21:03.624Z,119.00
2019-01-19T01:24:18.920Z,111.13
2019-01-19T01:27:27.163Z,111.53
2019-01-19T01:30:36.065Z,117.23
2019-01-19T01:33:48.585Z,125.37
2019-01-19T01:36:32.766Z,124.00
2019-01-19T01:39:39.019Z,133.10
2019-01-19T01:42:31.573Z,147.20
2019-01-19T01:45:30.053Z,144.67
2019-01-19T01:48:27.048Z,140.43
2019-01-19T01:51:39.250Z,140.17
2019-01-19T01:54:24.318Z,143.47
2019-01-19T01:57:01.909Z,137.97
2019-01-19T01:59:52.747Z,138.70
2019-01-19T02:02:52.562Z,137.57
2019-01-19T02:05:40.307Z,143.27
2019-01-19T02:08:28.267Z,134.47
2019-01-19T02:11:46.876Z,119.57
2019-01-19T02:14:49.219Z,114.67
2019-01-19T02:18:00.922Z,119.27
2019-01-19T02:20:56.994Z,117.93
2019-01-19T02:24:02.467Z,113.70
2019-01-19T02:27:30.022Z,118.40
2019-01-19T02:30:50.045Z,119.00
2019-01-19T02:34:15.538Z,123.27
2019-01-19T02:37:30.453Z,119.83
2019-01-19T02:40:37.734Z,110.03
2019-01-19T02:43:22.201Z,105.90
2019-01-19T02:46:28.580Z,120.80
2019-01-19T02:49:36.106Z,123.07
2019-01-19T02:52:46.284Z,120.77
2019-01-19T02:56:01.470Z,124.37
2019-01-19T02:59:00.002Z,123.83
2019-01-19T03:02:16.424Z,131.77
2019-01-19T03:05:19.142Z,147.20
2019-01-19T03:08:31.097Z,140.87
2019-01-19T03:11:17.928Z,148.23
2019-01-19T03:14:16.008Z,134.63
2019-01-19T03:17:22.669Z,131.20
2019-01-19T03:20:31.694Z,126.87
2019-01-19T03:23:37.953Z,125.40
2019-01-19T03:26:19.791Z,125.33
2019-01-19T03:29:16.736Z,132.33
2019-01-19T03:32:25.694Z,144.77
2019-01-19T03:35:34.187Z,145.20
2019-01-19T03:38:30.914Z,146.17
2019-01-19T03:41:23.061Z,148.37
2019-01-19T03:44:42.857Z,144.43
2019-01-19T03:47:39.014Z,144.40
2019-01-19T03:50:43.116Z,147.60
2019-01-19T03:53:36.757Z,148.83
2019-01-19T03:57:06.529Z,143.97
2019-01-19T04:00:16.554Z,146.20
2019-01-19T04:03:24.063Z,152.27
2019-01-19T04:06:35.385Z,139.60
2019-01-19T04:09:33.122Z,134.40
2019-01-19T04:12:31.944Z,135.57
2019-01-19T04:16:06.047Z,137.73
2019-01-19T04:19:01.929Z,152.53
2019-01-19T04:22:08.735Z,156.63
2019-01-19T04:25:27.743Z,181.40
2019-01-19T04:28:00.431Z,188.90
2019-01-19T04:30:31.533Z,215.93
2019-01-19T04:33:02.883Z,197.63
2019-01-19T04:35:34.663Z,176.63
2019-01-19T04:38:08.616Z,169.67
2019-01-19T04:40:41.076Z,185.97
2019-01-19T04:43:15.703Z,192.07
2019-01-19T04:45:46.746Z,169.37
2019-01-19T04:48:19.679Z,158.63
2019-01-19T04:50:51.211Z,180.00
2019-01-19T04:53:22.188Z,187.63
2019-01-19T04:55:53.735Z,170.30
2019-01-19T04:58:25.346Z,170.43
2019-01-19T05:00:57.859Z,178.37
2019-01-19T05:03:31.395Z,185.13
2019-01-19T05:06:11.778Z,197.33
2019-01-19T05:08:35.691Z,195.43
2019-01-19T05:11:07.241Z,190.97
2019-01-19T05:13:38.237Z,193.93
2019-01-19T05:16:09.814Z,185.17
2019-01-19T05:18:44.534Z,185.80
2019-01-19T05:21:16.534Z,190.43
2019-01-19T05:23:49.958Z,179.80
2019-01-19T05:26:21.121Z,179.77
2019-01-19T05:28:52.534Z,180.30
2019-01-19T05:31:23.978Z,188.20
2019-01-19T05:33:55.231Z,176.33
2019-01-19T05:36:28.708Z,186.23
2019-01-19T05:38:59.839Z,210.37
2019-01-19T05:41:30.986Z,188.53
2019-01-19T05:44:02.358Z,184.87
2019-01-19T05:46:40.326Z,195.30
2019-01-19T05:49:13.188Z,226.80
2019-01-19T05:51:44.423Z,222.13
2019-01-19T05:54:16.181Z,213.97
2019-01-19T05:56:47.461Z,194.73
2019-01-19T05:59:18.730Z,250.28
2019-01-19T06:01:50.054Z,192.03
2019-01-19T06:04:21.258Z,181.67
2019-01-19T06:06:52.228Z,263.87
2019-01-19T06:09:23.249Z,213.97
2019-01-19T06:11:54.344Z,215.40
2019-01-19T06:14:28.185Z,203.73
2019-01-19T06:17:02.674Z,179.27
2019-01-19T06:19:34.039Z,198.10
2019-01-19T06:22:05.838Z,202.47
2019-01-19T06:24:36.951Z,205.50
2019-01-19T06:27:08.336Z,202.73
2019-01-19T06:29:39.720Z,203.73
2019-01-19T06:32:10.996Z,218.80
2019-01-19T06:34:42.112Z,244.63
2019-01-19T06:37:13.191Z,231.07
2019-01-19T06:39:44.195Z,241.40
2019-01-19T06:42:15.510Z,238.20
2019-01-19T06:44:46.777Z,268.67
2019-01-19T06:47:18.132Z,292.03
2019-01-19T06:49:51.582Z,265.73
2019-01-19T06:52:22.597Z,220.27
2019-01-19T06:54:53.869Z,257.07
2019-01-19T06:57:26.953Z,255.00
2019-01-19T06:59:59.684Z,228.10
2019-01-19T07:02:31.605Z,218.40
2019-01-19T07:05:06.329Z,216.77
2019-01-19T07:07:37.349Z,219.27
2019-01-19T07:10:12.740Z,227.30
2019-01-19T07:12:44.663Z,228.80
2019-01-19T07:15:23.453Z,217.60
2019-01-19T07:18:01.020Z,150.40
2019-01-19T07:20:32.630Z,150.13
2019-01-19T07:23:03.959Z,161.27
2019-01-19T07:25:37.094Z,285.57
2019-01-19T07:28:08.431Z,311.30
2019-01-19T07:30:39.498Z,278.17
2019-01-19T07:33:10.872Z,387.03
2019-01-19T07:35:43.704Z,328.07
2019-01-19T07:38:14.761Z,259.57
2019-01-19T07:40:46.021Z,195.93
2019-01-19T07:43:17.824Z,189.93
2019-01-19T07:45:48.811Z,187.47
2019-01-19T07:48:25.550Z,208.13
2019-01-19T07:51:06.692Z,247.50
2019-01-19T07:53:38.388Z,225.83
2019-01-19T07:56:11.803Z,212.97
2019-01-19T07:58:43.205Z,207.87
2019-01-19T08:01:15.442Z,185.63
2019-01-19T08:03:46.453Z,201.43
2019-01-19T08:06:17.619Z,214.53
2019-01-19T08:08:49.038Z,218.63
2019-01-19T08:11:19.951Z,193.60
2019-01-19T08:13:51.519Z,205.37
2019-01-19T08:16:22.490Z,128.80
2019-01-19T08:18:53.530Z,132.40
2019-01-19T08:21:24.567Z,138.43
2019-01-19T08:23:55.903Z,139.43
2019-01-19T08:26:27.357Z,149.20
2019-01-19T08:28:58.828Z,131.23
2019-01-19T08:31:29.854Z,131.37
2019-01-19T08:34:00.836Z,130.47
2019-01-19T08:36:31.950Z,142.27
2019-01-19T08:39:02.971Z,122.00
2019-01-19T08:41:33.934Z,143.37
2019-01-19T08:44:06.167Z,214.63
2019-01-19T08:46:37.514Z,177.07
2019-01-19T08:49:08.523Z,165.13
2019-01-19T08:51:39.864Z,173.83
2019-01-19T08:54:11.331Z,159.93
2019-01-19T08:56:42.745Z,176.80
2019-01-19T08:59:13.768Z,179.40
2019-01-19T09:01:45.158Z,166.90
2019-01-19T09:04:17.098Z,143.30
2019-01-19T09:06:48.085Z,164.90
2019-01-19T09:09:19.737Z,162.97
2019-01-19T09:11:50.697Z,188.77
2019-01-19T09:14:21.682Z,184.70
2019-01-19T09:16:53.790Z,182.73
2019-01-19T09:19:24.702Z,164.60
2019-01-19T09:21:55.815Z,120.87
2019-01-19T09:24:29.173Z,112.37
2019-01-19T09:27:00.228Z,116.63
2019-01-19T09:29:31.814Z,126.20
2019-01-19T09:32:03.392Z,108.90
2019-01-19T09:34:34.784Z,120.67
2019-01-19T09:37:06.122Z,107.03
2019-01-19T09:39:37.689Z,124.70
2019-01-19T09:42:08.673Z,138.53
2019-01-19T09:44:39.788Z,139.67
2019-01-19T09:47:10.751Z,125.67
2019-01-19T09:49:41.989Z,91.80
2019-01-19T09:52:12.947Z,85.77
2019-01-19T09:54:43.965Z,87.10
2019-01-19T09:57:16.682Z,80.70
2019-01-19T09:59:48.071Z,85.73
2019-01-19T10:02:20.267Z,81.90
2019-01-19T10:04:55.029Z,105.33
2019-01-19T10:07:27.018Z,108.33
2019-01-19T10:09:57.969Z,91.60
2019-01-19T10:12:28.980Z,107.30
2019-01-19T10:15:00.416Z,132.93
2019-01-19T10:17:31.767Z,102.10
2019-01-19T10:20:02.821Z,99.27
2019-01-19T10:22:33.984Z,117.13
2019-01-19T10:25:06.525Z,121.00
2019-01-19T10:27:37.616Z,109.97
2019-01-19T10:30:15.613Z,104.73
2019-01-19T10:32:47.030Z,109.23
2019-01-19T10:35:19.652Z,116.10
2019-01-19T10:37:56.320Z,135.63
2019-01-19T10:40:23.355Z,133.70
2019-01-19T10:42:54.415Z,137.77
2019-01-19T10:45:28.919Z,147.27
2019-01-19T10:47:59.817Z,192.37
2019-01-19T10:50:31.176Z,164.93
2019-01-19T10:53:02.125Z,168.90
2019-01-19T10:55:33.099Z,154.47
2019-01-19T10:58:04.086Z,140.20
2019-01-19T11:00:35.277Z,208.03
2019-01-19T11:03:06.472Z,168.33
2019-01-19T11:05:37.871Z,138.40
2019-01-19T11:08:10.565Z,145.13
2019-01-19T11:10:41.969Z,261.20
2019-01-19T11:13:13.400Z,168.53
2019-01-19T11:15:46.603Z,108.03
2019-01-19T11:18:18.044Z,76.33
2019-01-19T11:20:49.534Z,82.80
2019-01-19T11:23:20.533Z,95.53
2019-01-19T11:25:51.578Z,248.13
2019-01-19T11:28:22.556Z,122.97
2019-01-19T11:30:53.537Z,126.20
2019-01-19T11:33:24.636Z,116.23
2019-01-19T11:35:55.699Z,121.50
2019-01-19T11:38:26.618Z,98.57
2019-01-19T11:40:57.956Z,89.40
2019-01-19T11:43:29.363Z,100.37
2019-01-19T11:46:01.021Z,85.50
2019-01-19T11:48:31.997Z,82.37
2019-01-19T11:51:03.049Z,95.60
2019-01-19T11:53:34.187Z,110.03
2019-01-19T11:56:12.007Z,138.80
2019-01-19T11:58:38.782Z,110.20
2019-01-19T12:01:09.747Z,109.13
2019-01-19T12:03:40.805Z,113.93
2019-01-19T12:06:11.839Z,107.03
2019-01-19T12:08:43.298Z,83.33
2019-01-19T12:11:14.407Z,70.20
2019-01-19T12:13:45.723Z,71.70
2019-01-19T12:16:16.698Z,77.13
2019-01-19T12:18:48.050Z,105.73
2019-01-19T12:21:19.128Z,117.47
2019-01-19T12:23:51.906Z,119.37
2019-01-19T12:26:23.301Z,103.40
2019-01-19T12:28:55.189Z,137.67
2019-01-19T12:31:34.502Z,70.57
2019-01-19T12:34:06.160Z,78.80
2019-01-19T12:36:37.561Z,113.33
2019-01-19T12:39:11.672Z,179.33
2019-01-19T12:41:42.967Z,136.60
2019-01-19T12:44:13.964Z,86.60
2019-01-19T12:46:45.188Z,112.17
2019-01-19T12:49:20.862Z,122.27
2019-01-19T12:51:52.296Z,78.40
2019-01-19T12:54:23.767Z,91.47
2019-01-19T12:56:54.863Z,59.50
2019-01-19T12:59:25.810Z,105.40
2019-01-19T13:01:57.184Z,80.73
2019-01-19T13:04:29.880Z,86.77
2019-01-19T13:07:11.335Z,100.63
2019-01-19T13:09:46.099Z,97.83
2019-01-19T13:12:35.291Z,107.17
2019-01-19T13:15:53.899Z,115.33
2019-01-19T13:19:04.556Z,116.03
2019-01-19T13:22:12.814Z,144.80
2019-01-19T13:25:40.156Z,121.60
2019-01-19T13:29:01.078Z,101.20
2019-01-19T13:36:11.888Z,85.80
2019-01-19T13:39:00.964Z,90.03
2019-01-19T13:42:14.118Z,119.87
2019-01-19T13:45:27.901Z,93.27
2019-01-19T13:48:26.125Z,83.87
2019-01-19T13:51:21.788Z,84.43
2019-01-19T13:54:42.339Z,107.47
2019-01-19T13:57:28.475Z,127.40
2019-01-19T14:00:24.667Z,112.20
2019-01-19T14:03:23.271Z,100.17
2019-01-19T14:06:34.416Z,94.17
2019-01-19T14:10:00.246Z,105.20
2019-01-19T14:12:54.558Z,127.87
2019-01-19T14:15:56.987Z,123.40
2019-01-19T14:19:07.877Z,146.63
2019-01-19T14:22:07.341Z,151.67
2019-01-19T14:25:00.097Z,155.03
2019-01-19T14:28:17.760Z,180.67
2019-01-19T14:31:35.015Z,187.73
2019-01-19T14:34:46.043Z,197.53
2019-01-19T14:37:34.813Z,216.53
2019-01-19T14:40:28.817Z,205.50
2019-01-19T14:43:42.679Z,116.97
2019-01-19T14:46:46.067Z,144.90
2019-01-19T14:49:57.705Z,215.43
2019-01-19T14:53:15.769Z,201.10
2019-01-19T14:56:36.675Z,243.63
2019-01-19T14:59:34.238Z,186.23
2019-01-19T15:02:51.940Z,212.10
2019-01-19T15:05:50.922Z,138.73
2019-01-19T15:08:33.193Z,97.43
2019-01-19T15:11:50.829Z,102.47
2019-01-19T15:14:59.219Z,341.70
2019-01-19T15:18:19.002Z,271.97
2019-01-19T15:21:32.824Z,220.40
2019-01-19T15:24:40.182Z,138.17
2019-01-19T15:27:53.579Z,144.60
2019-01-19T15:30:57.697Z,163.57
2019-01-19T15:34:00.339Z,186.77
2019-01-19T15:37:23.547Z,183.17
2019-01-19T15:40:35.289Z,179.13
2019-01-19T15:43:46.944Z,178.23
2019-01-19T15:47:01.660Z,180.33
2019-01-19T15:50:08.325Z,194.40
2019-01-19T15:53:29.290Z,190.87
2019-01-19T15:56:43.596Z,156.17
2019-01-19T15:59:28.920Z,155.30
2019-01-19T16:02:45.065Z,147.50
2019-01-19T16:05:48.575Z,198.17
2019-01-19T16:08:32.435Z,237.87
2019-01-19T16:11:23.524Z,174.13
2019-01-19T16:14:50.983Z,233.53
2019-01-19T16:17:58.176Z,228.23
2019-01-19T16:21:19.019Z,219.30
2019-01-19T16:24:19.883Z,232.03
2019-01-19T16:27:16.277Z,271.33
2019-01-19T16:30:22.517Z,247.57
2019-01-19T16:33:52.426Z,284.17
2019-01-19T16:37:08.401Z,269.50
2019-01-19T16:40:07.057Z,303.97
2019-01-19T16:43:35.084Z,259.97
2019-01-19T16:47:17.556Z,308.00
2019-01-19T16:50:28.137Z,395.60
2019-01-19T16:53:18.930Z,325.47
2019-01-19T16:56:16.225Z,245.00
2019-01-19T16:59:28.151Z,260.13
2019-01-19T17:02:20.439Z,361.90
2019-01-19T17:05:36.195Z,256.77
2019-01-19T17:08:46.508Z,292.07
2019-01-19T17:11:51.075Z,523.20
2019-01-19T17:15:03.420Z,323.83
2019-01-19T17:18:24.096Z,226.00
2019-01-19T17:21:37.723Z,230.13
2019-01-19T17:24:33.668Z,219.30
2019-01-19T17:27:36.450Z,213.43
2019-01-19T17:30:48.053Z,202.03
2019-01-19T17:33:48.866Z,232.40
2019-01-19T17:37:10.090Z,281.83
2019-01-19T17:40:27.263Z,320.80
2019-01-19T17:43:57.345Z,287.13
2019-01-19T17:46:49.507Z,257.83
2019-01-19T17:50:16.785Z,220.47
2019-01-19T17:53:17.491Z,305.53
2019-01-19T17:56:24.399Z,305.00
2019-01-19T17:59:35.285Z,288.27
2019-01-19T18:02:58.488Z,289.73
2019-01-19T18:06:03.490Z,346.57
2019-01-19T18:09:03.909Z,349.43
2019-01-19T18:12:14.098Z,333.97
2019-01-19T18:15:18.160Z,288.60
2019-01-19T18:18:31.317Z,301.30
2019-01-19T18:21:52.548Z,237.77
2019-01-19T18:25:04.305Z,244.13
2019-01-19T18:28:19.282Z,240.33
2019-01-19T18:31:45.098Z,274.73
2019-01-19T18:34:48.598Z,301.20
2019-01-19T18:37:49.683Z,366.03
2019-01-19T18:41:10.087Z,316.07
2019-01-19T18:44:02.871Z,321.37
2019-01-19T18:47:10.909Z,333.80
2019-01-19T18:50:37.942Z,343.00
2019-01-19T18:53:48.399Z,333.23
2019-01-19T18:56:49.926Z,367.33
2019-01-19T18:59:41.837Z,361.27
2019-01-19T19:02:29.652Z,366.93
2019-01-19T19:05:17.862Z,281.60
2019-01-19T19:08:47.989Z,286.30
2019-01-19T19:12:02.977Z,258.07
2019-01-19T19:15:22.963Z,259.70
2019-01-19T19:18:14.935Z,235.57
2019-01-19T19:21:30.503Z,212.00
2019-01-19T19:24:16.351Z,180.53
2019-01-19T19:27:23.846Z,234.60
2019-01-19T19:30:06.574Z,173.73
2019-01-19T19:33:24.282Z,214.13
2019-01-19T19:36:41.601Z,213.40
2019-01-19T19:39:38.199Z,184.30
2019-01-19T19:42:45.470Z,184.17
2019-01-19T19:45:57.329Z,212.67
2019-01-19T19:49:24.283Z,201.63
2019-01-19T19:51:58.741Z,206.20
2019-01-19T19:54:31.474Z,206.83
2019-01-19T19:57:02.753Z,222.97
2019-01-19T19:59:34.469Z,226.77
2019-01-19T20:02:08.941Z,264.80
2019-01-19T20:04:41.123Z,270.37
2019-01-19T20:07:21.213Z,281.87
2019-01-19T20:09:52.206Z,275.90
2019-01-19T20:12:24.727Z,270.87
2019-01-19T20:14:59.069Z,264.00
2019-01-19T20:17:30.438Z,245.97
2019-01-19T20:20:02.677Z,253.80
2019-01-19T20:22:34.052Z,244.60
2019-01-19T20:25:06.128Z,251.27
2019-01-19T20:27:37.256Z,316.27
2019-01-19T20:30:11.050Z,255.60
2019-01-19T20:32:42.430Z,255.70
2019-01-19T20:35:17.999Z,251.33
2019-01-19T20:37:54.738Z,323.27
2019-01-19T20:40:29.316Z,355.07
2019-01-19T20:43:00.847Z,330.70
2019-01-19T20:45:31.911Z,297.30
2019-01-19T20:48:04.044Z,287.13
2019-01-19T20:50:35.144Z,283.47
2019-01-19T20:53:06.269Z,282.27
2019-01-19T20:55:37.366Z,262.63
2019-01-19T20:58:09.087Z,275.63
2019-01-19T21:01:05.284Z,275.30
2019-01-19T21:03:57.449Z,332.93
2019-01-19T21:06:52.193Z,258.77
2019-01-19T21:09:44.277Z,286.80
2019-01-19T21:12:41.721Z,265.70
2019-01-19T21:15:34.785Z,246.93
2019-01-19T21:18:27.306Z,268.10
2019-01-19T21:21:17.032Z,294.20
2019-01-19T21:24:07.650Z,288.17
2019-01-19T21:26:57.277Z,277.67
2019-01-19T21:29:46.987Z,265.77
2019-01-19T21:32:36.799Z,248.80
2019-01-19T21:35:26.353Z,268.30
2019-01-19T21:38:16.812Z,260.23
2019-01-19T21:41:07.507Z,324.27
2019-01-19T21:44:00.218Z,357.03
2019-01-19T21:46:55.345Z,367.47
2019-01-19T21:49:44.900Z,396.73
2019-01-19T21:52:34.874Z,368.53
2019-01-19T21:55:24.574Z,412.77
2019-01-19T21:58:14.796Z,450.57
2019-01-19T22:01:04.613Z,353.30
2019-01-19T22:03:59.181Z,418.17
2019-01-19T22:06:48.977Z,373.40
2019-01-19T22:09:38.805Z,308.47
2019-01-19T22:12:28.790Z,241.83
2019-01-19T22:15:19.385Z,182.67
2019-01-19T22:18:09.150Z,216.80
2019-01-19T22:20:58.721Z,215.13
2019-01-19T22:23:48.351Z,202.73
2019-01-19T22:26:38.751Z,212.10
2019-01-19T22:29:28.026Z,238.70
2019-01-19T22:32:17.793Z,221.73
2019-01-19T22:35:08.518Z,203.80
2019-01-19T22:37:57.302Z,223.10
2019-01-19T22:40:53.458Z,234.97
2019-01-19T22:43:38.584Z,224.47
2019-01-19T22:46:29.397Z,236.73
2019-01-19T22:49:20.232Z,231.73
2019-01-19T22:52:09.976Z,252.60
2019-01-19T22:54:59.808Z,233.50
2019-01-19T22:57:49.529Z,222.63
2019-01-19T23:01:36.282Z,206.27
2019-01-19T23:04:26.477Z,169.43
2019-01-19T23:07:16.462Z,150.10
2019-01-19T23:10:06.418Z,138.23
2019-01-19T23:12:56.634Z,143.90
2019-01-19T23:15:46.113Z,131.00
2019-01-19T23:18:36.149Z,131.47
2019-01-19T23:21:24.814Z,122.27
2019-01-19T23:24:15.147Z,117.07
2019-01-19T23:27:07.725Z,118.13
2019-01-19T23:29:57.609Z,136.17
2019-01-19T23:32:47.375Z,146.10
2019-01-19T23:35:36.365Z,129.80
2019-01-19T23:38:25.359Z,132.97
2019-01-19T23:41:14.993Z,210.73
2019-01-19T23:44:04.703Z,168.57
2019-01-19T23:46:54.384Z,181.20
2019-01-19T23:49:43.820Z,174.80
2019-01-19T23:52:33.010Z,176.77
2019-01-19T23:55:22.488Z,200.33
2019-01-19T23:58:12.210Z,193.60
